Time;durP1;ratioP1;P1;durP2;ratioP2;P2;SDS_P1;SDS_P2;PMS_P1;PMS_P2;Temp;Humidity;BMP_temperature;BMP_pressure;BME280_temperature;BME280_humidity;BME280_pressure;Samples;Min_cycle;Max_cycle;Signal;HPM_P1;HPM_P2
2020/12/14 00:02:17;;;;;;;6.57;3.53;;;5.90;99.90;;;;;;4904399;28;20458;-70
2020/12/14 00:04:43;;;;;;;2.83;2.47;;;5.90;99.90;;;;;;4921725;29;20219;-69
2020/12/14 00:07:09;;;;;;;4.73;3.03;;;5.90;99.90;;;;;;4920287;29;20484;-70
2020/12/14 00:09:35;;;;;;;5.17;3.47;;;5.90;99.90;;;;;;4907792;29;20499;-69
2020/12/14 00:12:02;;;;;;;6.37;2.83;;;5.90;99.90;;;;;;4923397;28;20463;-70
2020/12/14 00:14:28;;;;;;;3.70;2.50;;;5.90;99.90;;;;;;4898799;29;20231;-69
2020/12/14 00:16:54;;;;;;;2.90;2.60;;;5.80;99.90;;;;;;4889552;28;20459;-69
2020/12/14 00:19:21;;;;;;;5.37;2.70;;;5.80;99.90;;;;;;4923150;29;20591;-70
2020/12/14 00:21:46;;;;;;;3.30;2.30;;;5.80;99.90;;;;;;4926210;29;20463;-69
2020/12/14 00:24:12;;;;;;;4.57;2.67;;;5.80;99.90;;;;;;4953972;28;20462;-69
2020/12/14 00:26:38;;;;;;;3.43;2.30;;;5.80;99.90;;;;;;4936933;28;20250;-69
2020/12/14 00:29:04;;;;;;;3.90;2.67;;;5.80;99.90;;;;;;4906239;28;20674;-70
2020/12/14 00:31:29;;;;;;;3.30;2.87;;;5.80;99.90;;;;;;4948109;28;20695;-69
2020/12/14 00:33:55;;;;;;;7.53;3.60;;;5.80;99.90;;;;;;4939790;28;20227;-69
2020/12/14 00:36:21;;;;;;;8.07;3.80;;;5.80;99.90;;;;;;4922411;29;20235;-69
2020/12/14 00:38:46;;;;;;;7.63;4.30;;;5.80;99.90;;;;;;4886353;29;20217;-72
2020/12/14 00:41:20;;;;;;;10.97;4.70;;;5.80;99.90;;;;;;4906452;28;20262;-69
2020/12/14 00:43:47;;;;;;;7.43;4.03;;;5.80;99.90;;;;;;4939409;29;20239;-69
2020/12/14 00:46:14;;;;;;;7.00;4.40;;;5.70;99.90;;;;;;4920786;29;20539;-69
2020/12/14 00:48:40;;;;;;;6.67;3.83;;;5.70;99.90;;;;;;4918248;29;20463;-72
2020/12/14 00:51:06;;;;;;;5.17;3.80;;;5.70;99.90;;;;;;4903550;28;20470;-71
2020/12/14 00:53:33;;;;;;;4.00;3.30;;;5.70;99.90;;;;;;4926587;29;20224;-71
2020/12/14 00:56:06;;;;;;;6.57;4.07;;;5.70;99.90;;;;;;4920246;29;20506;-69
2020/12/14 00:58:32;;;;;;;13.60;4.60;;;5.70;99.90;;;;;;4920304;29;20514;-69
2020/12/14 01:00:58;;;;;;;10.27;5.13;;;5.70;99.90;;;;;;4902594;29;21011;-69
2020/12/14 01:03:24;;;;;;;10.57;4.30;;;5.70;99.90;;;;;;4917353;29;20476;-69
2020/12/14 01:05:53;;;;;;;10.47;5.27;;;5.70;99.90;;;;;;4915230;29;20227;-69
2020/12/14 01:08:21;;;;;;;11.43;4.07;;;5.70;99.90;;;;;;4920233;29;20960;-69
2020/12/14 01:10:48;;;;;;;11.20;5.20;;;5.60;99.90;;;;;;4910673;28;20553;-70
2020/12/14 01:13:14;;;;;;;18.47;6.90;;;5.60;99.90;;;;;;4934460;29;20464;-69
2020/12/14 01:15:39;;;;;;;10.93;5.70;;;5.60;99.90;;;;;;4904807;29;20483;-69
2020/12/14 01:18:05;;;;;;;15.63;5.80;;;5.60;99.90;;;;;;4888141;29;20219;-71
2020/12/14 01:20:30;;;;;;;12.40;6.20;;;5.60;99.90;;;;;;4888519;28;20299;-69
2020/12/14 01:22:56;;;;;;;14.73;6.27;;;5.60;99.90;;;;;;4916517;28;20242;-73
2020/12/14 01:25:22;;;;;;;10.83;5.33;;;5.60;99.90;;;;;;4919707;29;20247;-69
2020/12/14 01:27:47;;;;;;;12.27;5.30;;;5.60;99.90;;;;;;4917279;28;20236;-69
2020/12/14 01:30:13;;;;;;;13.73;6.00;;;5.50;99.90;;;;;;4885430;29;20223;-70
2020/12/14 01:32:39;;;;;;;11.50;5.10;;;5.60;99.90;;;;;;4920109;29;20651;-69
2020/12/14 01:35:04;;;;;;;8.87;4.70;;;5.60;99.90;;;;;;4889977;29;20229;-69
2020/12/14 01:37:30;;;;;;;6.73;3.80;;;5.50;99.90;;;;;;4904139;29;20242;-70
2020/12/14 01:39:56;;;;;;;8.03;3.90;;;5.50;99.90;;;;;;4903372;28;20228;-69
2020/12/14 01:42:22;;;;;;;6.43;4.00;;;5.50;99.90;;;;;;4902947;29;20232;-69
2020/12/14 01:44:51;;;;;;;5.63;3.70;;;5.50;99.90;;;;;;4888641;28;20320;-69
2020/12/14 01:47:29;;;;;;;5.27;3.20;;;5.50;99.90;;;;;;4897071;29;20528;-69
2020/12/14 01:49:56;;;;;;;4.17;3.20;;;5.50;99.90;;;;;;4900365;29;20460;-69
2020/12/14 01:52:23;;;;;;;8.67;3.80;;;5.50;99.90;;;;;;4919674;29;20472;-71
2020/12/14 01:54:49;;;;;;;5.27;3.30;;;5.50;99.90;;;;;;4934341;29;20471;-71
2020/12/14 01:57:15;;;;;;;7.87;4.20;;;5.50;99.90;;;;;;4918400;29;20460;-69
2020/12/14 01:59:41;;;;;;;6.50;3.80;;;5.50;99.90;;;;;;4904180;29;20491;-70
2020/12/14 02:02:07;;;;;;;4.13;2.90;;;5.50;99.90;;;;;;4930939;29;20448;-69
2020/12/14 02:04:33;;;;;;;3.77;3.23;;;5.50;99.90;;;;;;4912418;29;20669;-72
2020/12/14 02:06:58;;;;;;;7.50;3.07;;;5.40;99.90;;;;;;4886281;29;20220;-71
2020/12/14 02:09:24;;;;;;;4.10;2.97;;;5.50;99.90;;;;;;4903245;29;20455;-69
2020/12/14 02:11:50;;;;;;;4.00;3.60;;;5.40;99.90;;;;;;4916213;28;20333;-69
2020/12/14 02:14:16;;;;;;;7.33;4.20;;;5.40;99.90;;;;;;4919792;29;20216;-69
2020/12/14 02:16:41;;;;;;;5.40;3.00;;;5.40;99.90;;;;;;4935526;29;20241;-69
2020/12/14 02:19:07;;;;;;;4.20;3.23;;;5.40;99.90;;;;;;4887636;29;20949;-70
2020/12/14 02:21:33;;;;;;;5.90;3.53;;;5.40;99.90;;;;;;4886722;29;20609;-72
2020/12/14 02:23:58;;;;;;;5.20;3.10;;;5.40;99.90;;;;;;4900354;28;20212;-69
2020/12/14 02:26:36;;;;;;;7.80;4.60;;;5.40;99.90;;;;;;4902521;29;20228;-69
2020/12/14 02:29:02;;;;;;;4.27;3.23;;;5.40;99.90;;;;;;4884716;28;20231;-70
2020/12/14 02:31:27;;;;;;;8.63;3.40;;;5.40;99.90;;;;;;4918786;29;20525;-70
2020/12/14 02:33:53;;;;;;;4.83;2.80;;;5.40;99.90;;;;;;4878454;29;20256;-69
2020/12/14 02:36:19;;;;;;;4.47;3.23;;;5.40;99.90;;;;;;4902301;29;20258;-69
2020/12/14 02:38:44;;;;;;;4.93;3.40;;;5.30;99.90;;;;;;4918799;29;20227;-69
2020/12/14 02:41:11;;;;;;;10.77;4.20;;;5.30;99.90;;;;;;4918374;29;20227;-69
2020/12/14 02:43:36;;;;;;;4.30;3.83;;;5.40;99.90;;;;;;4899663;29;20224;-69
2020/12/14 02:46:02;;;;;;;4.93;4.00;;;5.30;99.90;;;;;;4915381;29;20454;-70
2020/12/14 02:48:28;;;;;;;6.53;4.77;;;5.30;99.90;;;;;;4902862;29;20304;-69
2020/12/14 02:50:53;;;;;;;4.37;3.40;;;5.30;99.90;;;;;;4918308;28;20219;-69
2020/12/14 02:53:19;;;;;;;5.63;4.00;;;5.30;99.90;;;;;;4915496;29;20235;-69
2020/12/14 02:55:45;;;;;;;8.63;4.57;;;5.30;99.90;;;;;;4900078;29;20262;-69
2020/12/14 02:58:10;;;;;;;9.50;4.60;;;5.30;99.90;;;;;;4889147;29;20216;-69
2020/12/14 03:00:36;;;;;;;9.13;5.60;;;5.30;99.90;;;;;;4904192;29;20216;-69
2020/12/14 03:03:02;;;;;;;6.07;4.37;;;5.30;99.90;;;;;;4918125;28;20599;-69
2020/12/14 03:05:27;;;;;;;6.47;3.93;;;5.30;99.90;;;;;;4887979;29;20311;-69
2020/12/14 03:07:53;;;;;;;6.80;4.27;;;5.30;99.90;;;;;;4918483;28;20261;-69
2020/12/14 03:10:18;;;;;;;6.97;4.27;;;5.30;99.90;;;;;;4887311;29;20219;-71
2020/12/14 03:12:44;;;;;;;7.93;5.33;;;5.30;99.90;;;;;;4903239;28;20219;-69
2020/12/14 03:15:10;;;;;;;6.57;4.80;;;5.30;99.90;;;;;;4934651;28;20741;-69
2020/12/14 03:17:35;;;;;;;6.30;4.13;;;5.20;99.90;;;;;;4924029;28;20250;-69
2020/12/14 03:20:01;;;;;;;4.87;4.20;;;5.20;99.90;;;;;;4914957;29;20231;-69
2020/12/14 03:22:27;;;;;;;7.47;4.93;;;5.30;99.90;;;;;;4907386;28;20326;-71
2020/12/14 03:24:52;;;;;;;6.37;4.73;;;5.20;99.90;;;;;;4903352;28;20227;-69
2020/12/14 03:27:25;;;;;;;6.73;4.63;;;5.20;99.90;;;;;;4918085;28;20216;-69
2020/12/14 03:29:51;;;;;;;5.83;4.10;;;5.20;99.90;;;;;;4904905;28;20227;-70
2020/12/14 03:32:17;;;;;;;6.03;4.40;;;5.30;99.90;;;;;;4903469;29;20503;-69
2020/12/14 03:34:42;;;;;;;7.40;4.90;;;5.20;99.90;;;;;;4903451;28;20267;-69
2020/12/14 03:37:08;;;;;;;9.97;5.00;;;5.20;99.90;;;;;;4889004;28;20581;-69
2020/12/14 03:39:33;;;;;;;4.87;3.83;;;5.30;99.90;;;;;;4934611;29;20636;-69
2020/12/14 03:41:59;;;;;;;8.07;4.90;;;5.20;99.90;;;;;;4919825;28;20249;-69
2020/12/14 03:44:25;;;;;;;6.70;4.23;;;5.20;99.90;;;;;;4914277;28;20227;-69
2020/12/14 03:46:51;;;;;;;9.63;5.20;;;5.30;99.90;;;;;;4924134;29;20220;-69
2020/12/14 03:49:16;;;;;;;7.23;4.60;;;5.20;99.90;;;;;;4919791;29;20279;-69
2020/12/14 03:51:42;;;;;;;7.40;4.63;;;5.30;99.90;;;;;;4899325;29;20752;-71
2020/12/14 03:54:07;;;;;;;6.20;4.20;;;5.30;99.90;;;;;;4903146;29;20267;-69
2020/12/14 03:56:33;;;;;;;11.07;5.03;;;5.30;99.90;;;;;;4885322;29;20228;-69
2020/12/14 03:59:00;;;;;;;9.27;4.23;;;5.20;99.90;;;;;;4917699;29;20251;-69
2020/12/14 04:01:26;;;;;;;5.70;4.83;;;5.20;99.90;;;;;;4901285;28;20231;-74
2020/12/14 04:03:53;;;;;;;6.43;4.10;;;5.30;99.90;;;;;;4918481;29;20526;-72
2020/12/14 04:06:26;;;;;;;5.50;3.90;;;5.30;99.90;;;;;;4899228;29;20547;-70
2020/12/14 04:08:52;;;;;;;5.20;4.20;;;5.30;99.90;;;;;;4898023;29;20510;-71
2020/12/14 04:11:18;;;;;;;9.67;4.40;;;5.30;99.90;;;;;;4913805;29;20463;-69
2020/12/14 04:13:44;;;;;;;6.23;4.30;;;5.30;99.90;;;;;;4931766;29;20466;-69
2020/12/14 04:16:11;;;;;;;10.37;5.10;;;5.20;99.90;;;;;;4916151;29;20720;-69
2020/12/14 04:18:37;;;;;;;7.17;4.93;;;5.20;99.90;;;;;;4927142;29;20981;-72
2020/12/14 04:21:03;;;;;;;8.67;5.30;;;5.20;99.90;;;;;;4915486;28;20488;-72
2020/12/14 04:23:29;;;;;;;10.43;5.30;;;5.20;99.90;;;;;;4916565;29;20496;-69
2020/12/14 04:25:55;;;;;;;8.90;4.60;;;5.20;99.90;;;;;;4905906;29;20488;-69
2020/12/14 04:28:21;;;;;;;9.10;5.07;;;5.20;99.90;;;;;;4922274;29;20227;-69
2020/12/14 04:30:46;;;;;;;4.70;4.17;;;5.20;99.90;;;;;;4905801;28;20228;-69
2020/12/14 04:33:12;;;;;;;5.90;4.03;;;5.20;99.90;;;;;;4937092;29;20389;-69
2020/12/14 04:35:38;;;;;;;6.70;4.53;;;5.20;99.90;;;;;;4936927;29;20235;-69
2020/12/14 04:38:03;;;;;;;4.63;4.17;;;5.20;99.90;;;;;;4936615;29;20216;-73
2020/12/14 04:40:30;;;;;;;6.10;4.67;;;5.20;99.90;;;;;;4905650;28;20298;-69
2020/12/14 04:42:59;;;;;;;5.40;4.83;;;5.20;99.90;;;;;;4921127;29;20255;-71
2020/12/14 04:45:26;;;;;;;4.83;3.90;;;5.20;99.90;;;;;;4921722;29;20460;-69
2020/12/14 04:47:56;;;;;;;11.20;4.90;;;5.20;99.90;;;;;;4919112;28;20550;-70
2020/12/14 04:50:23;;;;;;;7.10;4.77;;;5.20;99.90;;;;;;4889660;29;20470;-70
2020/12/14 04:52:50;;;;;;;5.80;4.27;;;5.20;99.90;;;;;;4920751;29;20487;-69
2020/12/14 04:55:22;;;;;;;7.77;4.30;;;5.20;99.90;;;;;;4921383;29;20870;-69
2020/12/14 04:57:49;;;;;;;4.70;4.23;;;5.20;99.90;;;;;;4885850;28;20812;-69
2020/12/14 05:00:16;;;;;;;8.17;4.87;;;5.30;99.90;;;;;;4902206;29;20456;-69
2020/12/14 05:02:42;;;;;;;6.43;4.67;;;5.30;99.90;;;;;;4930264;29;20494;-69
2020/12/14 05:05:12;;;;;;;4.63;3.70;;;5.30;99.90;;;;;;4936120;29;20992;-69
2020/12/14 05:07:42;;;;;;;6.70;4.10;;;5.30;99.90;;;;;;4936812;29;20224;-69
2020/12/14 05:10:08;;;;;;;6.77;3.93;;;5.30;99.90;;;;;;4920469;29;20460;-69
2020/12/14 05:12:41;;;;;;;7.87;5.10;;;5.30;99.90;;;;;;4917403;29;20495;-70
2020/12/14 05:15:22;;;;;;;9.00;4.03;;;5.30;99.90;;;;;;4920703;29;21008;-69
2020/12/14 05:17:50;;;;;;;5.07;4.40;;;5.30;99.90;;;;;;4918283;28;20456;-72
2020/12/14 05:20:18;;;;;;;6.63;5.03;;;5.40;99.90;;;;;;4929066;29;20488;-71
2020/12/14 05:23:06;;;;;;;8.00;5.17;;;5.40;99.90;;;;;;4896149;29;21016;-72
2020/12/14 05:25:33;;;;;;;5.47;3.80;;;5.40;99.90;;;;;;4918388;29;20464;-72
2020/12/14 05:28:02;;;;;;;6.73;4.80;;;5.40;99.90;;;;;;4920649;29;20996;-71
2020/12/14 05:30:51;;;;;;;7.30;4.53;;;5.40;99.90;;;;;;4936366;29;20579;-72
2020/12/14 05:33:24;;;;;;;6.50;4.10;;;5.40;99.90;;;;;;4913208;29;20468;-72
2020/12/14 05:35:50;;;;;;;8.57;4.00;;;5.40;99.90;;;;;;4930750;29;20601;-71
2020/12/14 05:38:29;;;;;;;6.77;4.30;;;5.50;99.90;;;;;;4900929;29;20460;-71
2020/12/14 05:41:03;;;;;;;11.13;4.10;;;5.50;99.90;;;;;;4916416;29;20457;-72
2020/12/14 05:43:31;;;;;;;4.77;4.00;;;5.40;99.90;;;;;;4900991;29;20473;-71
2020/12/14 05:46:14;;;;;;;5.37;3.73;;;5.50;99.90;;;;;;4901009;29;20457;-72
2020/12/14 05:48:40;;;;;;;8.33;4.53;;;5.50;99.90;;;;;;4903632;29;21304;-71
2020/12/14 05:51:08;;;;;;;6.63;4.77;;;5.50;99.90;;;;;;4919687;29;20456;-71
2020/12/14 05:53:41;;;;;;;5.00;4.50;;;5.50;99.90;;;;;;4918770;29;20510;-71
2020/12/14 05:56:08;;;;;;;5.97;4.27;;;5.50;99.90;;;;;;4885035;29;20510;-72
2020/12/14 05:58:35;;;;;;;5.60;4.40;;;5.50;99.90;;;;;;4897666;28;20483;-72
2020/12/14 06:01:04;;;;;;;8.13;4.97;;;5.50;99.90;;;;;;4891948;28;21023;-71
2020/12/14 06:03:30;;;;;;;8.27;5.07;;;5.50;99.90;;;;;;4919780;29;20464;-72
2020/12/14 06:06:04;;;;;;;5.30;4.30;;;5.50;99.90;;;;;;4931933;29;20540;-72
2020/12/14 06:08:45;;;;;;;12.60;5.70;;;5.60;99.90;;;;;;4917011;29;20236;-72
2020/12/14 06:11:17;;;;;;;10.17;6.77;;;5.60;99.90;;;;;;4903927;29;20488;-72
2020/12/14 06:13:51;;;;;;;10.37;5.60;;;5.50;99.90;;;;;;4901033;29;20945;-72
2020/12/14 06:16:22;;;;;;;6.60;4.80;;;5.50;99.90;;;;;;4912258;29;20977;-72
2020/12/14 06:18:49;;;;;;;7.93;5.67;;;5.50;99.90;;;;;;4885040;29;20468;-72
2020/12/14 06:21:35;;;;;;;9.70;5.50;;;5.60;99.90;;;;;;4922207;29;20486;-72
2020/12/14 06:24:05;;;;;;;10.50;6.33;;;5.60;99.90;;;;;;4919218;29;20463;-71
2020/12/14 06:26:32;;;;;;;8.70;5.23;;;5.60;99.90;;;;;;4919606;29;20904;-72
2020/12/14 06:28:58;;;;;;;7.97;5.33;;;5.60;99.90;;;;;;4915879;29;20460;-70
2020/12/14 06:31:31;;;;;;;11.23;6.17;;;5.60;99.90;;;;;;4935031;29;20543;-72
2020/12/14 06:33:56;;;;;;;10.03;6.33;;;5.60;99.90;;;;;;4904622;29;20224;-71
2020/12/14 06:36:24;;;;;;;12.70;6.30;;;5.60;99.90;;;;;;4918954;29;20607;-72
2020/12/14 06:38:53;;;;;;;11.83;6.60;;;5.60;99.90;;;;;;4935261;29;20231;-72
2020/12/14 06:41:19;;;;;;;12.20;6.00;;;5.60;99.90;;;;;;4918851;29;20471;-72
2020/12/14 06:43:50;;;;;;;14.23;6.33;;;5.60;99.90;;;;;;4935383;29;20539;-71
2020/12/14 06:46:29;;;;;;;12.13;6.00;;;5.60;99.90;;;;;;4919243;28;20243;-70
2020/12/14 06:48:55;;;;;;;8.00;4.93;;;5.60;99.90;;;;;;4903420;28;20518;-71
2020/12/14 06:51:21;;;;;;;8.03;5.57;;;5.60;99.90;;;;;;4903090;29;20464;-71
2020/12/14 06:53:52;;;;;;;7.57;4.80;;;5.70;99.90;;;;;;4919571;29;20228;-71
2020/12/14 06:56:27;;;;;;;7.93;4.50;;;5.60;99.90;;;;;;4919128;29;21132;-71
2020/12/14 06:58:53;;;;;;;4.93;4.30;;;5.60;99.90;;;;;;4934625;28;20471;-71
2020/12/14 07:01:38;;;;;;;6.17;4.37;;;5.60;99.90;;;;;;4934511;28;20471;-71
2020/12/14 07:04:04;;;;;;;7.93;4.67;;;5.70;99.90;;;;;;4934790;28;21062;-71
2020/12/14 07:06:30;;;;;;;7.63;4.80;;;5.70;99.90;;;;;;4919195;28;20497;-71
2020/12/14 07:08:56;;;;;;;7.67;5.33;;;5.70;99.90;;;;;;4929953;28;20458;-70
2020/12/14 07:11:24;;;;;;;6.27;4.23;;;5.70;99.90;;;;;;4937220;28;20557;-71
2020/12/14 07:13:50;;;;;;;6.73;4.30;;;5.70;99.90;;;;;;4938815;28;20230;-74
2020/12/14 07:16:17;;;;;;;6.90;3.87;;;5.70;99.90;;;;;;4907490;29;20547;-71
2020/12/14 07:18:46;;;;;;;3.80;3.40;;;5.70;99.90;;;;;;4907824;29;20539;-72
2020/12/14 07:21:16;;;;;;;5.93;4.20;;;5.70;99.90;;;;;;4890780;28;20456;-71
2020/12/14 07:23:46;;;;;;;7.03;4.73;;;5.70;99.90;;;;;;4955875;28;20467;-72
2020/12/14 07:26:15;;;;;;;5.97;4.50;;;5.70;99.90;;;;;;4921445;29;20932;-71
2020/12/14 07:28:48;;;;;;;5.80;4.43;;;5.70;99.90;;;;;;4922340;29;20463;-71
2020/12/14 07:31:23;;;;;;;4.93;4.13;;;5.70;99.90;;;;;;4921456;28;20920;-72
2020/12/14 07:33:59;;;;;;;5.43;4.10;;;5.70;99.90;;;;;;4916622;29;20451;-72
2020/12/14 07:36:27;;;;;;;5.27;4.37;;;5.70;99.90;;;;;;4922137;29;20607;-72
2020/12/14 07:38:57;;;;;;;4.90;4.40;;;5.70;99.90;;;;;;4906827;29;20482;-71
2020/12/14 07:41:24;;;;;;;3.77;3.47;;;5.70;99.90;;;;;;4937637;29;20478;-70
2020/12/14 07:43:55;;;;;;;6.10;3.70;;;5.70;99.90;;;;;;4922006;29;20482;-72
2020/12/14 07:46:41;;;;;;;7.70;4.37;;;5.80;99.90;;;;;;4919509;29;20464;-71
2020/12/14 07:49:12;;;;;;;6.20;3.60;;;5.80;99.90;;;;;;4935523;29;20507;-71
2020/12/14 07:51:43;;;;;;;4.83;3.90;;;5.80;99.90;;;;;;4907654;29;20471;-71
2020/12/14 07:54:18;;;;;;;4.80;3.90;;;5.80;99.90;;;;;;4936957;29;20975;-69
2020/12/14 07:57:01;;;;;;;5.70;3.97;;;5.80;99.90;;;;;;4919710;29;20471;-70
2020/12/14 07:59:29;;;;;;;4.37;3.97;;;5.80;99.90;;;;;;4921925;29;20463;-70
2020/12/14 08:01:56;;;;;;;4.83;4.07;;;5.80;99.90;;;;;;4937611;28;20847;-69
2020/12/14 08:04:33;;;;;;;6.87;4.47;;;5.80;99.90;;;;;;4906483;29;20474;-70
2020/12/14 08:07:00;;;;;;;5.50;4.80;;;5.80;99.90;;;;;;4923510;29;20451;-69
2020/12/14 08:09:31;;;;;;;4.87;4.20;;;5.80;99.90;;;;;;4923236;29;21181;-72
2020/12/14 08:11:58;;;;;;;4.97;4.07;;;5.80;99.90;;;;;;4921064;28;20529;-69
2020/12/14 08:14:24;;;;;;;7.93;4.30;;;5.80;99.90;;;;;;4906115;29;20459;-69
2020/12/14 08:16:50;;;;;;;4.53;4.13;;;5.80;99.90;;;;;;4936265;29;20479;-70
2020/12/14 08:19:35;;;;;;;6.50;4.37;;;5.80;99.90;;;;;;4921216;29;20467;-71
2020/12/14 08:22:03;;;;;;;6.23;3.80;;;5.90;99.90;;;;;;4920465;28;20514;-72
2020/12/14 08:24:29;;;;;;;5.47;3.57;;;5.80;99.90;;;;;;4920132;29;20550;-71
2020/12/14 08:27:09;;;;;;;6.63;4.50;;;5.80;99.90;;;;;;4920909;29;20638;-71
2020/12/14 08:29:36;;;;;;;4.63;3.77;;;5.80;99.90;;;;;;4921407;29;20459;-71
2020/12/14 08:32:02;;;;;;;5.07;3.70;;;5.90;99.90;;;;;;4901904;29;20845;-72
2020/12/14 08:34:29;;;;;;;4.80;3.50;;;5.90;99.90;;;;;;4919996;29;20471;-72
2020/12/14 08:36:55;;;;;;;5.17;3.47;;;5.90;99.90;;;;;;4936516;29;20471;-71
2020/12/14 08:39:21;;;;;;;5.80;3.93;;;5.90;99.90;;;;;;4905728;29;20456;-71
2020/12/14 08:41:46;;;;;;;6.53;4.40;;;5.90;99.90;;;;;;4905284;29;20308;-72
2020/12/14 08:44:19;;;;;;;6.20;4.43;;;5.90;99.90;;;;;;4918496;29;20225;-72
2020/12/14 08:46:45;;;;;;;5.03;3.70;;;5.90;99.90;;;;;;4899326;29;20267;-72
2020/12/14 08:49:10;;;;;;;4.67;3.60;;;5.90;99.90;;;;;;4901692;29;20437;-69
2020/12/14 08:51:36;;;;;;;5.07;3.97;;;5.90;99.90;;;;;;4886792;29;20673;-72
2020/12/14 08:54:19;;;;;;;5.77;3.20;;;5.90;99.90;;;;;;4901940;29;20232;-71
2020/12/14 08:56:45;;;;;;;6.20;3.70;;;6.00;99.90;;;;;;4902132;29;20793;-72
2020/12/14 08:59:15;;;;;;;5.70;4.17;;;6.00;99.90;;;;;;4914136;28;20458;-72
2020/12/14 09:01:54;;;;;;;3.77;3.47;;;6.00;99.90;;;;;;4936427;29;20530;-72
2020/12/14 09:04:39;;;;;;;5.97;3.50;;;6.00;99.90;;;;;;4920373;29;20558;-71
2020/12/14 09:07:06;;;;;;;4.90;3.83;;;6.00;99.90;;;;;;4919944;29;20455;-71
2020/12/14 09:09:38;;;;;;;4.47;2.97;;;6.00;99.90;;;;;;4935997;29;20468;-72
2020/12/14 09:12:10;;;;;;;6.00;4.07;;;6.00;99.90;;;;;;4919809;29;20524;-71
2020/12/14 09:14:36;;;;;;;4.77;3.83;;;6.10;99.90;;;;;;4920441;29;20467;-69
2020/12/14 09:17:11;;;;;;;7.13;4.40;;;6.10;99.90;;;;;;4920201;28;20484;-72
2020/12/14 09:19:37;;;;;;;9.80;3.87;;;6.10;99.90;;;;;;4920404;29;20238;-72
2020/12/14 09:22:03;;;;;;;6.33;4.60;;;6.10;99.90;;;;;;4903938;28;20478;-72
2020/12/14 09:24:34;;;;;;;8.10;3.17;;;6.10;99.90;;;;;;4904281;28;20459;-72
2020/12/14 09:27:08;;;;;;;4.10;3.07;;;6.20;99.90;;;;;;4920310;29;20231;-71
2020/12/14 09:29:35;;;;;;;3.27;2.97;;;6.20;99.90;;;;;;4917621;28;20460;-72
2020/12/14 09:32:01;;;;;;;3.97;3.30;;;6.20;99.90;;;;;;4901024;29;20472;-72
2020/12/14 09:34:27;;;;;;;5.57;3.23;;;6.20;99.90;;;;;;4904561;29;20460;-71
2020/12/14 09:36:58;;;;;;;5.43;3.30;;;6.20;99.90;;;;;;4920223;29;20487;-72
2020/12/14 09:39:25;;;;;;;4.80;3.07;;;6.20;99.90;;;;;;4917004;29;20247;-72
2020/12/14 09:41:52;;;;;;;6.57;2.90;;;6.30;99.90;;;;;;4900625;29;20875;-71
2020/12/14 09:44:18;;;;;;;5.80;4.07;;;6.30;99.90;;;;;;4941490;28;20460;-73
2020/12/14 09:46:45;;;;;;;6.00;3.90;;;6.40;99.90;;;;;;4918723;29;20475;-71
2020/12/14 09:49:11;;;;;;;3.53;2.90;;;6.40;99.90;;;;;;4915234;28;20464;-71
2020/12/14 09:51:37;;;;;;;4.63;3.87;;;6.50;99.90;;;;;;4914199;28;20506;-71
2020/12/14 09:54:04;;;;;;;5.57;2.97;;;6.50;99.90;;;;;;4925319;28;20471;-72
2020/12/14 09:56:37;;;;;;;4.60;3.80;;;6.60;99.90;;;;;;4910021;29;20473;-71
2020/12/14 09:59:03;;;;;;;4.20;3.03;;;6.70;99.90;;;;;;4914654;28;20534;-72
2020/12/14 10:01:30;;;;;;;3.60;3.30;;;6.80;99.90;;;;;;4917944;29;20570;-72
2020/12/14 10:03:57;;;;;;;6.47;4.30;;;6.80;99.90;;;;;;4930275;29;20488;-71
2020/12/14 10:06:23;;;;;;;5.00;3.97;;;6.90;99.90;;;;;;4924805;29;20477;-72
2020/12/14 10:08:49;;;;;;;4.87;3.77;;;6.90;99.90;;;;;;4934246;29;20467;-72
2020/12/14 10:11:15;;;;;;;7.90;5.20;;;7.00;99.90;;;;;;4913800;28;20459;-72
2020/12/14 10:13:40;;;;;;;5.73;3.87;;;7.00;99.90;;;;;;4897388;28;20483;-71
2020/12/14 10:16:07;;;;;;;7.13;4.93;;;7.10;99.90;;;;;;4902369;28;20262;-71
2020/12/14 10:18:33;;;;;;;5.13;4.47;;;7.20;99.90;;;;;;4929817;29;20220;-71
2020/12/14 10:21:02;;;;;;;8.00;4.50;;;7.30;99.90;;;;;;4914524;29;20472;-71
2020/12/14 10:23:28;;;;;;;5.93;4.63;;;7.30;99.90;;;;;;4929070;28;20463;-72
2020/12/14 10:25:53;;;;;;;6.57;3.73;;;7.30;99.90;;;;;;4917692;29;21050;-70
2020/12/14 10:28:19;;;;;;;7.03;3.80;;;7.30;99.90;;;;;;4924029;29;20472;-72
2020/12/14 10:31:11;;;;;;;4.50;3.87;;;7.40;99.90;;;;;;4918272;28;20216;-72
2020/12/14 10:33:38;;;;;;;8.07;4.47;;;7.50;99.90;;;;;;4911866;29;20224;-72
2020/12/14 10:36:15;;;;;;;6.60;4.13;;;7.50;99.90;;;;;;4916459;28;20472;-71
2020/12/14 10:38:41;;;;;;;6.00;3.93;;;7.50;99.90;;;;;;4927704;28;20458;-71
2020/12/14 10:41:06;;;;;;;5.77;4.47;;;7.50;99.90;;;;;;4902007;28;20471;-72
2020/12/14 10:43:32;;;;;;;7.50;4.80;;;7.50;99.90;;;;;;4917779;29;20279;-72
2020/12/14 10:45:58;;;;;;;7.30;4.20;;;7.50;99.90;;;;;;4899810;29;20311;-73
2020/12/14 10:48:24;;;;;;;4.27;3.77;;;7.50;99.90;;;;;;4920504;29;20234;-72
2020/12/14 10:50:50;;;;;;;7.43;3.50;;;7.60;99.90;;;;;;4900228;28;20232;-72
2020/12/14 10:53:16;;;;;;;6.33;4.03;;;7.60;99.90;;;;;;4913116;28;20456;-72
2020/12/14 10:55:41;;;;;;;5.17;4.00;;;7.60;99.90;;;;;;4917650;28;20243;-72
2020/12/14 10:58:08;;;;;;;5.80;4.10;;;7.60;99.90;;;;;;4882935;29;20444;-71
2020/12/14 11:00:34;;;;;;;7.70;3.67;;;7.60;99.90;;;;;;4905358;28;20278;-72
2020/12/14 11:03:00;;;;;;;6.27;4.80;;;7.60;99.90;;;;;;4909504;29;20567;-72
2020/12/14 11:05:26;;;;;;;8.70;5.47;;;7.70;99.90;;;;;;4889219;28;20555;-72
2020/12/14 11:07:54;;;;;;;5.70;4.50;;;7.70;99.90;;;;;;4919901;28;20215;-71
2020/12/14 11:10:20;;;;;;;5.60;4.17;;;7.60;99.90;;;;;;4897754;28;20232;-73
2020/12/14 11:12:45;;;;;;;6.27;5.53;;;7.70;99.90;;;;;;4914256;28;20555;-73
2020/12/14 11:15:11;;;;;;;6.20;4.50;;;7.70;99.90;;;;;;4913837;28;20877;-73
2020/12/14 11:17:38;;;;;;;5.60;4.40;;;7.70;99.90;;;;;;4914335;28;20472;-73
2020/12/14 11:20:05;;;;;;;5.67;5.00;;;7.70;99.90;;;;;;4916508;28;20226;-73
2020/12/14 11:22:31;;;;;;;5.07;3.87;;;7.70;99.90;;;;;;4915399;29;20552;-71
2020/12/14 11:24:57;;;;;;;7.60;5.57;;;7.70;99.90;;;;;;4932523;28;20539;-72
2020/12/14 11:27:23;;;;;;;11.87;6.73;;;7.70;99.90;;;;;;4917337;29;20618;-72
2020/12/14 11:29:48;;;;;;;20.93;16.60;;;7.80;99.90;;;;;;4896558;28;20247;-71
2020/12/14 11:32:14;;;;;;;13.37;11.30;;;7.80;99.90;;;;;;4900994;29;20239;-72
2020/12/14 11:34:40;;;;;;;17.83;14.03;;;7.80;99.90;;;;;;4886326;29;20595;-72
2020/12/14 11:37:05;;;;;;;12.87;10.37;;;7.80;99.90;;;;;;4934049;29;20235;-72
2020/12/14 11:39:31;;;;;;;12.70;10.80;;;7.70;99.90;;;;;;4934152;29;20212;-72
2020/12/14 11:41:57;;;;;;;12.50;10.13;;;7.70;99.90;;;;;;4929976;29;20776;-72
2020/12/14 11:44:23;;;;;;;13.80;10.87;;;7.70;99.90;;;;;;4932891;29;20255;-71
2020/12/14 11:46:50;;;;;;;12.87;10.27;;;7.70;99.90;;;;;;4913847;29;21171;-73
2020/12/14 11:49:17;;;;;;;12.77;11.07;;;7.70;99.90;;;;;;4934260;29;20231;-72
2020/12/14 11:51:43;;;;;;;14.30;10.30;;;7.70;99.90;;;;;;4913879;28;20472;-71
2020/12/14 11:54:09;;;;;;;11.90;10.20;;;7.70;99.90;;;;;;4933155;29;20822;-73
2020/12/14 11:56:34;;;;;;;15.60;8.57;;;7.70;99.90;;;;;;4898486;29;20397;-72
2020/12/14 11:59:00;;;;;;;8.90;8.00;;;7.70;99.90;;;;;;4900246;28;20231;-71
2020/12/14 12:01:25;;;;;;;13.00;7.50;;;7.80;99.90;;;;;;4896962;28;20215;-70
2020/12/14 12:03:51;;;;;;;10.17;9.10;;;7.80;99.90;;;;;;4923547;28;20709;-69
2020/12/14 12:06:18;;;;;;;9.00;8.20;;;7.80;99.90;;;;;;4905561;28;20224;-69
2020/12/14 12:08:44;;;;;;;9.00;8.10;;;7.70;99.90;;;;;;4919078;29;20283;-71
2020/12/14 12:11:12;;;;;;;8.30;7.50;;;7.70;99.90;;;;;;4914246;28;20514;-71
2020/12/14 12:13:38;;;;;;;9.97;8.97;;;7.80;99.90;;;;;;4890486;29;20832;-71
2020/12/14 12:16:08;;;;;;;10.00;8.50;;;7.80;99.90;;;;;;4910125;29;20536;-69
2020/12/14 12:18:33;;;;;;;7.53;6.83;;;7.80;99.90;;;;;;4903026;29;20459;-69
2020/12/14 12:20:59;;;;;;;22.87;17.77;;;7.80;99.90;;;;;;4928279;29;20461;-70
2020/12/14 12:23:25;;;;;;;17.97;15.40;;;7.70;99.90;;;;;;4921569;29;20299;-70
2020/12/14 12:25:51;;;;;;;13.50;11.13;;;7.80;99.90;;;;;;4904773;29;20487;-70
2020/12/14 12:28:17;;;;;;;15.17;11.23;;;7.70;99.90;;;;;;4905500;29;20215;-70
2020/12/14 12:30:42;;;;;;;18.10;12.47;;;7.70;99.90;;;;;;4904912;28;20343;-71
2020/12/14 12:33:08;;;;;;;16.33;11.57;;;7.70;99.90;;;;;;4920189;29;20234;-69
2020/12/14 12:35:34;;;;;;;17.50;11.67;;;7.70;99.90;;;;;;4889251;28;20227;-70
2020/12/14 12:37:59;;;;;;;12.50;9.00;;;7.70;99.90;;;;;;4919022;29;20216;-70
2020/12/14 12:40:25;;;;;;;8.20;6.87;;;7.70;99.90;;;;;;4905822;28;20211;-70
2020/12/14 12:42:51;;;;;;;7.37;5.60;;;7.70;99.90;;;;;;4903506;28;20314;-72
2020/12/14 12:45:16;;;;;;;5.33;4.80;;;7.70;99.90;;;;;;4921528;29;20231;-69
2020/12/14 12:47:42;;;;;;;6.50;5.33;;;7.60;99.90;;;;;;4905874;29;20282;-69
2020/12/14 12:50:09;;;;;;;7.90;6.37;;;7.60;99.90;;;;;;4904764;28;20232;-69
2020/12/14 12:52:34;;;;;;;11.33;7.97;;;7.70;99.90;;;;;;4905586;29;20456;-69
2020/12/14 12:55:00;;;;;;;8.70;6.33;;;7.70;99.90;;;;;;4931777;28;20538;-70
2020/12/14 12:57:26;;;;;;;8.33;6.50;;;7.70;99.90;;;;;;4902221;29;20219;-69
2020/12/14 12:59:53;;;;;;;8.67;6.80;;;7.70;99.90;;;;;;4887114;29;20244;-72